Eagle Boston — 9VHI — position and weather

sailwx.info

Track history (hours):
 
Tides and Currents Weather Stations Pressure Air Temp Water Temp Dewpoint Dewpoint Depression Visibility Wind Speed Wind Dir Waves Ship Positions

Eagle Boston

Last reported at 2017-Mar-04 22:33 UTC. Time now 2017-Mar-24 07:57 UTC.
Position N 02°01' E 102°12'.
Warning: this ship's position is 19 days out of date.

Length 254 m; draft 8.5 m.

Type: Tanker. MMSI: 564004000.

Date/timePositionNaut miles runAvg speedWind from/ knotsBaromVisibWave heightAir tempDewpointWater temp
2017-Mar-04 22:33N 02°01' E 102°12'1514.7
2017-Mar-04 21:34N 01°53' E 102°24'1514.5
2017-Mar-04 20:33N 01°48' E 102°38'2813.4
2017-Mar-04 18:27N 01°34' E 103°03'2513.0
2017-Mar-04 16:33N 01°18' E 103°21'1414.3
2017-Mar-04 15:33N 01°12' E 103°34'1413.9
2017-Mar-04 14:33N 01°10' E 103°48'10 9.9
2017-Mar-04 13:33N 01°16' E 103°56'1 1.1
2017-Mar-04 12:28N 01°16' E 103°55'0 0.0
2017-Mar-04 11:34N 01°16' E 103°55'0 0.0
2017-Mar-04 10:33N 01°16' E 103°55'0 0.0
2017-Mar-04 09:28N 01°16' E 103°55'0 0.0
2017-Mar-04 08:28N 01°16' E 103°55'0 0.0
2017-Mar-04 07:32N 01°16' E 103°55'0 0.0
2017-Mar-04 06:32N 01°16' E 103°55'0 0.0
2017-Mar-04 05:32N 01°16' E 103°55'0 0.0
2017-Mar-04 04:32N 01°16' E 103°55'0 0.0
2017-Mar-04 03:32N 01°16' E 103°55'0 0.1
2017-Mar-04 02:29N 01°16' E 103°55'0 0.0
2017-Mar-04 01:32N 01°16' E 103°55'0 0.1
2017-Mar-04 00:20N 01°16' E 103°55'0 0.1
2017-Mar-03 23:32N 01°16' E 103°55'0 0.1
2017-Mar-03 22:23N 01°16' E 103°55'0 0.1
2017-Mar-03 20:32N 01°16' E 103°55'0 0.1
2017-Mar-03 19:26N 01°16' E 103°55'0 0.0
2017-Mar-03 18:32N 01°16' E 103°55'0 0.0
2017-Mar-03 17:32N 01°16' E 103°55'0 0.0
2017-Mar-03 16:32N 01°16' E 103°55'0 0.0
2017-Mar-03 15:32N 01°16' E 103°55'0 0.0
2017-Mar-03 14:32N 01°16' E 103°55'0 0.0
2017-Mar-03 13:32N 01°16' E 103°55'0 0.0
2017-Mar-03 12:29N 01°16' E 103°55'0 0.0
2017-Mar-03 11:32N 01°16' E 103°55'0 0.0
2017-Mar-03 10:29N 01°16' E 103°55'0 0.0
2017-Mar-03 09:29N 01°16' E 103°55'0 0.0
2017-Mar-03 08:29N 01°16' E 103°55'0 0.0
2017-Mar-03 07:29N 01°16' E 103°55'1 0.8
2017-Mar-03 06:33N 01°15' E 103°54'2 2.2
2017-Mar-03 05:33N 01°15' E 103°56'3 3.5
2017-Mar-03 04:33N 01°12' E 103°54'5 5.3
2017-Mar-03 03:33N 01°10' E 103°49'6 5.7
2017-Mar-03 02:33N 01°07' E 103°45'9 8.6
2017-Mar-03 01:33N 01°04' E 103°37'10 9.8
2017-Mar-03 00:33N 01°13' E 103°34'3 2.5
2017-Mar-02 23:32N 01°16' E 103°35'0 0.0
2017-Mar-02 22:30N 01°16' E 103°35'0 0.1
2017-Mar-02 21:30N 01°16' E 103°35'0 0.0
2017-Mar-02 20:33N 01°16' E 103°35'0 0.1
2017-Mar-02 19:30N 01°16' E 103°35'0 0.1
2017-Mar-02 18:33N 01°16' E 103°35'0 0.1
2017-Mar-02 17:09N 01°16' E 103°35'0 0.0
2017-Mar-02 16:33N 01°16' E 103°35'0 0.1
2017-Mar-02 15:33N 01°16' E 103°35'0 0.1
2017-Mar-02 14:24N 01°16' E 103°35'0 0.1
2017-Mar-02 13:30N 01°16' E 103°35'0 0.0
2017-Mar-02 12:30N 01°16' E 103°35'0 0.0
2017-Mar-02 11:33N 01°16' E 103°35'0 0.1
2017-Mar-02 10:33N 01°16' E 103°35'0 0.1
2017-Mar-02 09:33N 01°16' E 103°35'0 0.0
2017-Mar-02 08:33N 01°16' E 103°35'0 0.2
2017-Mar-02 07:30N 01°16' E 103°35'0 0.1
2017-Mar-02 06:27N 01°16' E 103°35'0 0.0
2017-Mar-02 05:27N 01°16' E 103°35'0 0.0
2017-Mar-02 04:30N 01°16' E 103°35'0 0.0
2017-Mar-02 03:33N 01°16' E 103°35'0 0.1
2017-Mar-02 02:18N 01°16' E 103°35'0 0.1
2017-Mar-02 01:27N 01°16' E 103°35'0 0.0
2017-Mar-02 00:29N 01°16' E 103°35'0 0.0
2017-Mar-01 23:33N 01°16' E 103°35'0 0.1
2017-Mar-01 22:21N 01°16' E 103°35'0 0.1
2017-Mar-01 21:33N 01°16' E 103°35'0 0.1
2017-Mar-01 20:30N 01°16' E 103°35'0 0.0
2017-Mar-01 19:12N 01°16' E 103°35'0 0.0
2017-Mar-01 18:30N 01°16' E 103°35'0 0.1
2017-Mar-01 17:33N 01°16' E 103°35'0 0.1
2017-Mar-01 16:27N 01°16' E 103°35'0 0.0
2017-Mar-01 15:30N 01°16' E 103°35'0 0.1
2017-Mar-01 14:33N 01°16' E 103°35'0 0.1
2017-Mar-01 13:27N 01°16' E 103°35'0 0.1
2017-Mar-01 12:24N 01°16' E 103°35'0 0.1
2017-Mar-01 11:33N 01°16' E 103°35'0 0.0
2017-Mar-01 10:29N 01°16' E 103°35'0 0.0
2017-Mar-01 09:33N 01°16' E 103°35'0 0.1
2017-Mar-01 08:33N 01°16' E 103°35'0 0.0
2017-Mar-01 07:33N 01°16' E 103°35'0 0.1
2017-Mar-01 06:33N 01°16' E 103°35'0 0.2
2017-Mar-01 05:24N 01°16' E 103°35'0 0.1
2017-Mar-01 04:33N 01°16' E 103°35'0 0.0
2017-Mar-01 03:30N 01°16' E 103°35'0 0.0
2017-Mar-01 02:33N 01°16' E 103°35'0 0.2
2017-Mar-01 01:33N 01°16' E 103°35'0 0.1
2017-Mar-01 00:29N 01°16' E 103°35'0 0.0
2017-Feb-28 23:27N 01°16' E 103°35'0 0.0
2017-Feb-28 22:30N 01°16' E 103°35'0 0.0
2017-Feb-28 21:30N 01°16' E 103°35'0 0.0
2017-Feb-28 20:33N 01°16' E 103°35'0 0.2
2017-Feb-28 19:33N 01°16' E 103°35'0 0.2
2017-Feb-28 18:34N 01°16' E 103°35'3 3.3
2017-Feb-28 17:34N 01°14' E 103°32'5 4.5
2017-Feb-28 16:33N 01°11' E 103°29'9 9.3
2017-Feb-28 15:33N 01°15' E 103°21'6212.4
2017-Feb-28 10:33N 01°48' E 102°28'  
Track history (hours):
 
Tides and Currents Weather Stations Pressure Air Temp Water Temp Dewpoint Dewpoint Depression Visibility Wind Speed Wind Dir Waves Ship Positions

Eagle Boston

Last reported at 2017-Mar-04 22:33 UTC. Time now 2017-Mar-24 07:57 UTC.
Position N 02°01' E 102°12'.
Warning: this ship's position is 19 days out of date.

Length 254 m; draft 8.5 m.

Type: Tanker. MMSI: 564004000.

Date/timePositionNaut miles runAvg speedWind from/ knotsBaromVisibWave heightAir tempDewpointWater temp
2017-Mar-04 22:33N 02°01' E 102°12'1514.7
2017-Mar-04 21:34N 01°53' E 102°24'1514.5
2017-Mar-04 20:33N 01°48' E 102°38'2813.4
2017-Mar-04 18:27N 01°34' E 103°03'2513.0
2017-Mar-04 16:33N 01°18' E 103°21'1414.3
2017-Mar-04 15:33N 01°12' E 103°34'1413.9
2017-Mar-04 14:33N 01°10' E 103°48'10 9.9
2017-Mar-04 13:33N 01°16' E 103°56'1 1.1
2017-Mar-04 12:28N 01°16' E 103°55'0 0.0
2017-Mar-04 11:34N 01°16' E 103°55'0 0.0
2017-Mar-04 10:33N 01°16' E 103°55'0 0.0
2017-Mar-04 09:28N 01°16' E 103°55'0 0.0
2017-Mar-04 08:28N 01°16' E 103°55'0 0.0
2017-Mar-04 07:32N 01°16' E 103°55'0 0.0
2017-Mar-04 06:32N 01°16' E 103°55'0 0.0
2017-Mar-04 05:32N 01°16' E 103°55'0 0.0
2017-Mar-04 04:32N 01°16' E 103°55'0 0.0
2017-Mar-04 03:32N 01°16' E 103°55'0 0.1
2017-Mar-04 02:29N 01°16' E 103°55'0 0.0
2017-Mar-04 01:32N 01°16' E 103°55'0 0.1
2017-Mar-04 00:20N 01°16' E 103°55'0 0.1
2017-Mar-03 23:32N 01°16' E 103°55'0 0.1
2017-Mar-03 22:23N 01°16' E 103°55'0 0.1
2017-Mar-03 20:32N 01°16' E 103°55'0 0.1
2017-Mar-03 19:26N 01°16' E 103°55'0 0.0
2017-Mar-03 18:32N 01°16' E 103°55'0 0.0
2017-Mar-03 17:32N 01°16' E 103°55'0 0.0
2017-Mar-03 16:32N 01°16' E 103°55'0 0.0
2017-Mar-03 15:32N 01°16' E 103°55'0 0.0
2017-Mar-03 14:32N 01°16' E 103°55'0 0.0
2017-Mar-03 13:32N 01°16' E 103°55'0 0.0
2017-Mar-03 12:29N 01°16' E 103°55'0 0.0
2017-Mar-03 11:32N 01°16' E 103°55'0 0.0
2017-Mar-03 10:29N 01°16' E 103°55'0 0.0
2017-Mar-03 09:29N 01°16' E 103°55'0 0.0
2017-Mar-03 08:29N 01°16' E 103°55'0 0.0
2017-Mar-03 07:29N 01°16' E 103°55'1 0.8
2017-Mar-03 06:33N 01°15' E 103°54'2 2.2
2017-Mar-03 05:33N 01°15' E 103°56'3 3.5
2017-Mar-03 04:33N 01°12' E 103°54'5 5.3
2017-Mar-03 03:33N 01°10' E 103°49'6 5.7
2017-Mar-03 02:33N 01°07' E 103°45'9 8.6
2017-Mar-03 01:33N 01°04' E 103°37'10 9.8
2017-Mar-03 00:33N 01°13' E 103°34'3 2.5
2017-Mar-02 23:32N 01°16' E 103°35'0 0.0
2017-Mar-02 22:30N 01°16' E 103°35'0 0.1
2017-Mar-02 21:30N 01°16' E 103°35'0 0.0
2017-Mar-02 20:33N 01°16' E 103°35'0 0.1
2017-Mar-02 19:30N 01°16' E 103°35'0 0.1
2017-Mar-02 18:33N 01°16' E 103°35'0 0.1
2017-Mar-02 17:09N 01°16' E 103°35'0 0.0
2017-Mar-02 16:33N 01°16' E 103°35'0 0.1
2017-Mar-02 15:33N 01°16' E 103°35'0 0.1
2017-Mar-02 14:24N 01°16' E 103°35'0 0.1
2017-Mar-02 13:30N 01°16' E 103°35'0 0.0
2017-Mar-02 12:30N 01°16' E 103°35'0 0.0
2017-Mar-02 11:33N 01°16' E 103°35'0 0.1
2017-Mar-02 10:33N 01°16' E 103°35'0 0.1
2017-Mar-02 09:33N 01°16' E 103°35'0 0.0
2017-Mar-02 08:33N 01°16' E 103°35'0 0.2
2017-Mar-02 07:30N 01°16' E 103°35'0 0.1
2017-Mar-02 06:27N 01°16' E 103°35'0 0.0
2017-Mar-02 05:27N 01°16' E 103°35'0 0.0
2017-Mar-02 04:30N 01°16' E 103°35'0 0.0
2017-Mar-02 03:33N 01°16' E 103°35'0 0.1
2017-Mar-02 02:18N 01°16' E 103°35'0 0.1
2017-Mar-02 01:27N 01°16' E 103°35'0 0.0
2017-Mar-02 00:29N 01°16' E 103°35'0 0.0
2017-Mar-01 23:33N 01°16' E 103°35'0 0.1
2017-Mar-01 22:21N 01°16' E 103°35'0 0.1
2017-Mar-01 21:33N 01°16' E 103°35'0 0.1
2017-Mar-01 20:30N 01°16' E 103°35'0 0.0
2017-Mar-01 19:12N 01°16' E 103°35'0 0.0
2017-Mar-01 18:30N 01°16' E 103°35'0 0.1
2017-Mar-01 17:33N 01°16' E 103°35'0 0.1
2017-Mar-01 16:27N 01°16' E 103°35'0 0.0
2017-Mar-01 15:30N 01°16' E 103°35'0 0.1
2017-Mar-01 14:33N 01°16' E 103°35'0 0.1
2017-Mar-01 13:27N 01°16' E 103°35'0 0.1
2017-Mar-01 12:24N 01°16' E 103°35'0 0.1
2017-Mar-01 11:33N 01°16' E 103°35'0 0.0
2017-Mar-01 10:29N 01°16' E 103°35'0 0.0
2017-Mar-01 09:33N 01°16' E 103°35'0 0.1
2017-Mar-01 08:33N 01°16' E 103°35'0 0.0
2017-Mar-01 07:33N 01°16' E 103°35'0 0.1
2017-Mar-01 06:33N 01°16' E 103°35'0 0.2
2017-Mar-01 05:24N 01°16' E 103°35'0 0.1
2017-Mar-01 04:33N 01°16' E 103°35'0 0.0
2017-Mar-01 03:30N 01°16' E 103°35'0 0.0
2017-Mar-01 02:33N 01°16' E 103°35'0 0.2
2017-Mar-01 01:33N 01°16' E 103°35'0 0.1
2017-Mar-01 00:29N 01°16' E 103°35'0 0.0
2017-Feb-28 23:27N 01°16' E 103°35'0 0.0
2017-Feb-28 22:30N 01°16' E 103°35'0 0.0
2017-Feb-28 21:30N 01°16' E 103°35'0 0.0
2017-Feb-28 20:33N 01°16' E 103°35'0 0.2
2017-Feb-28 19:33N 01°16' E 103°35'0 0.2
2017-Feb-28 18:34N 01°16' E 103°35'3 3.3
2017-Feb-28 17:34N 01°14' E 103°32'5 4.5
2017-Feb-28 16:33N 01°11' E 103°29'9 9.3
2017-Feb-28 15:33N 01°15' E 103°21'6212.4
2017-Feb-28 10:33N 01°48' E 102°28'  

Dump ship's entire track history